createdAt,value
2023-05-12T00:02:00.962Z,2.92
2023-05-12T00:04:27.834Z,2.67
2023-05-12T00:06:54.581Z,2.90
2023-05-12T00:09:21.246Z,2.95
2023-05-12T00:11:48.643Z,2.95
2023-05-12T00:14:15.858Z,2.75
2023-05-12T00:16:42.509Z,2.90
2023-05-12T00:19:12.144Z,2.85
2023-05-12T00:21:40.395Z,3.03
2023-05-12T00:24:07.248Z,3.15
2023-05-12T00:26:33.743Z,2.63
2023-05-12T00:29:01.753Z,3.25
2023-05-12T00:31:33.127Z,3.03
2023-05-12T00:34:02.225Z,2.88
2023-05-12T00:36:33.476Z,3.10
2023-05-12T00:39:00.159Z,2.75
2023-05-12T00:41:26.862Z,3.00
2023-05-12T00:43:53.351Z,3.17
2023-05-12T00:46:21.072Z,2.75
2023-05-12T00:48:48.419Z,3.40
2023-05-12T00:51:16.994Z,3.17
2023-05-12T00:53:49.756Z,3.00
2023-05-12T00:56:21.887Z,2.92
2023-05-12T00:58:48.389Z,3.05
2023-05-12T01:01:15.019Z,3.22
2023-05-12T01:03:52.082Z,2.92
2023-05-12T01:06:28.998Z,3.20
2023-05-12T01:08:58.112Z,3.35
2023-05-12T01:11:24.680Z,3.28
2023-05-12T01:13:51.242Z,2.90
2023-05-12T01:16:23.743Z,3.28
2023-05-12T01:18:53.804Z,3.25
2023-05-12T01:21:20.573Z,2.78
2023-05-12T01:23:54.551Z,2.88
2023-05-12T01:26:22.236Z,3.22
2023-05-12T01:28:50.388Z,3.08
2023-05-12T01:31:19.594Z,3.08
2023-05-12T01:33:47.621Z,3.38
2023-05-12T01:36:14.128Z,2.92
2023-05-12T01:38:40.575Z,2.88
2023-05-12T01:41:07.017Z,3.40
2023-05-12T01:43:33.554Z,3.15
2023-05-12T01:46:00.071Z,3.35
2023-05-12T01:48:26.515Z,3.38
2023-05-12T01:50:52.922Z,3.38
2023-05-12T01:53:19.302Z,3.20
2023-05-12T01:55:45.702Z,3.42
2023-05-12T01:58:12.128Z,3.30
2023-05-12T02:00:38.629Z,3.55
2023-05-12T02:03:05.176Z,3.75
2023-05-12T02:05:31.701Z,3.47
2023-05-12T02:07:58.126Z,3.45
2023-05-12T02:10:24.516Z,3.40
2023-05-12T02:12:50.938Z,3.67
2023-05-12T02:15:17.370Z,3.67
2023-05-12T02:17:43.969Z,3.42
2023-05-12T02:20:12.344Z,3.72
2023-05-12T02:25:05.896Z,3.38
2023-05-12T02:27:32.599Z,3.35
2023-05-12T02:29:59.134Z,4.05
2023-05-12T02:32:28.182Z,3.72
2023-05-12T02:34:57.812Z,3.80
2023-05-12T02:37:24.354Z,3.65
2023-05-12T02:39:50.808Z,3.50
2023-05-12T02:42:17.356Z,3.33
2023-05-12T02:44:43.877Z,3.35
2023-05-12T02:47:10.332Z,3.33
2023-05-12T02:49:36.769Z,3.22
2023-05-12T02:52:03.464Z,3.38
2023-05-12T02:54:29.940Z,3.80
2023-05-12T02:56:58.206Z,2.95
2023-05-12T02:59:24.737Z,3.17
2023-05-12T03:01:51.227Z,3.22
2023-05-12T03:04:18.019Z,3.30
2023-05-12T03:06:49.263Z,3.30
2023-05-12T03:09:16.688Z,3.88
2023-05-12T03:11:43.185Z,3.42
2023-05-12T03:14:09.652Z,3.25
2023-05-12T03:16:38.641Z,3.25
2023-05-12T03:19:05.488Z,3.20
2023-05-12T03:21:34.325Z,3.17
2023-05-12T03:24:03.160Z,3.25
2023-05-12T03:26:32.981Z,3.50
2023-05-12T03:28:59.480Z,3.35
2023-05-12T03:31:26.348Z,3.47
2023-05-12T03:33:52.848Z,3.47
2023-05-12T03:36:19.493Z,3.42
2023-05-12T03:38:46.266Z,3.42
2023-05-12T03:41:12.892Z,3.35
2023-05-12T03:43:40.470Z,3.25
2023-05-12T03:46:33.711Z,3.08
2023-05-12T03:49:01.018Z,3.30
2023-05-12T03:51:31.042Z,3.20
2023-05-12T03:53:57.549Z,2.95
2023-05-12T03:56:24.491Z,2.97
2023-05-12T03:58:51.084Z,3.10
2023-05-12T04:01:17.579Z,2.95
2023-05-12T04:03:44.493Z,2.90
2023-05-12T04:06:12.555Z,2.97
2023-05-12T04:08:41.741Z,2.70
2023-05-12T04:11:09.441Z,2.90
2023-05-12T04:13:35.942Z,2.63
2023-05-12T04:16:02.434Z,2.88
2023-05-12T04:18:29.195Z,3.38
2023-05-12T04:20:56.161Z,2.90
2023-05-12T04:23:22.961Z,3.05
2023-05-12T04:25:49.456Z,2.95
2023-05-12T04:28:16.197Z,3.30
2023-05-12T04:30:43.002Z,2.92
2023-05-12T04:33:10.142Z,2.53
2023-05-12T04:35:36.777Z,2.95
2023-05-12T04:38:03.737Z,3.15
2023-05-12T04:40:35.070Z,3.60
2023-05-12T04:43:01.915Z,2.70
2023-05-12T04:45:28.463Z,3.00
2023-05-12T04:47:54.994Z,2.67
2023-05-12T04:50:21.557Z,2.78
2023-05-12T04:52:48.022Z,3.35
2023-05-12T04:55:14.469Z,2.70
2023-05-12T04:57:41.543Z,3.22
2023-05-12T05:00:09.162Z,3.05
2023-05-12T05:02:35.984Z,2.65
2023-05-12T05:05:02.574Z,2.83
2023-05-12T05:07:29.125Z,3.10
2023-05-12T05:09:55.540Z,3.20
2023-05-12T05:12:21.963Z,3.50
2023-05-12T05:14:48.425Z,3.40
2023-05-12T05:17:14.986Z,3.47
2023-05-12T05:19:55.112Z,4.07
2023-05-12T05:22:25.415Z,3.35
2023-05-12T05:24:52.120Z,3.75
2023-05-12T05:27:19.044Z,4.03
2023-05-12T05:29:45.700Z,3.88
2023-05-12T05:32:12.426Z,3.50
2023-05-12T05:34:38.891Z,3.50
2023-05-12T05:37:05.701Z,3.30
2023-05-12T05:39:32.241Z,3.50
2023-05-12T05:41:58.755Z,2.80
2023-05-12T05:44:25.534Z,2.92
2023-05-12T05:46:52.120Z,3.15
2023-05-12T05:49:18.726Z,3.00
2023-05-12T05:51:45.134Z,3.05
2023-05-12T05:54:12.126Z,2.83
2023-05-12T05:56:38.652Z,3.05
2023-05-12T05:59:05.462Z,2.88
2023-05-12T06:01:32.473Z,2.95
2023-05-12T06:03:59.314Z,2.92
2023-05-12T06:06:26.023Z,3.30
2023-05-12T06:08:52.525Z,3.00
2023-05-12T06:11:18.953Z,3.25
2023-05-12T06:13:45.372Z,2.95
2023-05-12T06:16:11.852Z,3.03
2023-05-12T06:18:38.644Z,2.67
2023-05-12T06:21:06.236Z,2.97
2023-05-12T06:23:33.282Z,2.90
2023-05-12T06:25:59.756Z,2.80
2023-05-12T06:28:26.179Z,3.08
2023-05-12T06:30:52.637Z,2.92
2023-05-12T06:33:19.082Z,3.45
2023-05-12T06:35:45.715Z,3.10
2023-05-12T06:38:12.217Z,2.53
2023-05-12T06:40:38.646Z,2.78
2023-05-12T06:43:05.185Z,3.22
2023-05-12T06:45:31.606Z,2.88
2023-05-12T06:47:58.353Z,2.60
2023-05-12T06:50:24.799Z,2.90
2023-05-12T06:52:51.280Z,2.53
2023-05-12T06:55:20.645Z,2.47
2023-05-12T06:57:47.753Z,2.60
2023-05-12T07:00:14.622Z,2.50
2023-05-12T07:02:41.286Z,2.42
2023-05-12T07:05:08.237Z,2.47
2023-05-12T07:07:35.959Z,2.80
2023-05-12T07:10:02.457Z,2.67
2023-05-12T07:12:28.984Z,2.75
2023-05-12T07:14:55.806Z,2.60
2023-05-12T07:17:22.301Z,2.83
2023-05-12T07:19:48.872Z,2.50
2023-05-12T07:22:15.362Z,2.72
2023-05-12T07:24:41.835Z,2.67
2023-05-12T07:27:08.302Z,2.65
2023-05-12T07:29:34.897Z,2.80
2023-05-12T07:32:01.402Z,2.53
2023-05-12T07:34:27.884Z,2.80
2023-05-12T07:36:54.462Z,2.53
2023-05-12T07:39:23.728Z,3.00
2023-05-12T07:41:52.837Z,3.40
2023-05-12T07:44:19.477Z,2.90
2023-05-12T07:46:46.066Z,2.38
2023-05-12T07:49:12.727Z,2.70
2023-05-12T07:51:39.433Z,2.33
2023-05-12T07:54:07.150Z,2.50
2023-05-12T07:56:33.965Z,2.45
2023-05-12T07:59:00.973Z,2.63
2023-05-12T08:01:27.455Z,2.42
2023-05-12T08:03:54.072Z,2.63
2023-05-12T08:06:20.589Z,2.60
2023-05-12T08:08:47.041Z,2.20
2023-05-12T08:11:13.515Z,2.63
2023-05-12T08:13:39.931Z,2.65
2023-05-12T08:16:07.086Z,2.72
2023-05-12T08:18:33.617Z,2.47
2023-05-12T08:21:00.105Z,2.85
2023-05-12T08:23:26.546Z,2.80
2023-05-12T08:25:53.015Z,2.60
2023-05-12T08:28:19.444Z,2.55
2023-05-12T08:30:46.936Z,2.70
2023-05-12T08:33:13.897Z,2.42
2023-05-12T08:35:40.470Z,2.80
2023-05-12T08:38:07.170Z,2.60
2023-05-12T08:40:41.685Z,2.50
2023-05-12T08:43:18.904Z,2.80
2023-05-12T08:45:46.817Z,2.10
2023-05-12T08:48:17.365Z,2.28
2023-05-12T08:50:47.200Z,2.45
2023-05-12T08:53:16.201Z,2.55
2023-05-12T08:55:53.339Z,2.30
2023-05-12T08:58:37.865Z,2.28
2023-05-12T09:01:07.391Z,2.30
2023-05-12T09:03:39.323Z,2.00
2023-05-12T09:06:06.803Z,2.17
2023-05-12T09:08:34.984Z,2.25
2023-05-12T09:13:40.927Z,1.90
2023-05-12T09:16:18.419Z,2.03
2023-05-12T09:18:52.250Z,1.98
2023-05-12T09:21:19.807Z,2.15
2023-05-12T09:24:00.656Z,1.90
2023-05-12T09:26:28.293Z,1.77
2023-05-12T09:29:04.450Z,2.00
2023-05-12T09:31:30.869Z,1.88
2023-05-12T09:33:58.464Z,1.65
2023-05-12T09:36:25.665Z,1.80
2023-05-12T09:39:09.465Z,2.67
2023-05-12T09:41:43.129Z,2.20
2023-05-12T09:44:10.917Z,1.92
2023-05-12T09:46:39.766Z,1.70
2023-05-12T09:49:06.214Z,2.00
2023-05-12T09:51:32.653Z,1.58
2023-05-12T09:53:59.540Z,1.80
2023-05-12T09:56:29.013Z,2.00
2023-05-12T09:59:00.034Z,2.20
2023-05-12T10:01:29.488Z,2.00
2023-05-12T10:03:58.230Z,2.10
2023-05-12T10:06:31.357Z,1.92
2023-05-12T10:09:22.135Z,2.20
2023-05-12T10:11:58.378Z,2.25
2023-05-12T10:14:25.940Z,2.25
2023-05-12T10:16:53.135Z,2.13
2023-05-12T10:19:20.694Z,2.03
2023-05-12T10:21:47.986Z,2.20
2023-05-12T10:24:17.897Z,2.15
2023-05-12T10:26:45.055Z,2.25
2023-05-12T10:29:12.782Z,2.28
2023-05-12T10:31:40.056Z,2.53
2023-05-12T10:34:06.900Z,2.30
2023-05-12T10:36:45.821Z,2.30
2023-05-12T10:39:14.736Z,2.33
2023-05-12T10:41:42.488Z,2.20
2023-05-12T10:44:10.547Z,2.03
2023-05-12T10:46:37.480Z,2.03
2023-05-12T10:49:06.934Z,2.08
2023-05-12T10:51:43.188Z,2.20
2023-05-12T10:54:11.366Z,1.90
2023-05-12T10:56:38.640Z,2.20
2023-05-12T10:59:27.579Z,2.00
2023-05-12T11:02:03.923Z,2.05
2023-05-12T11:04:41.639Z,2.22
2023-05-12T11:07:12.139Z,1.92
2023-05-12T11:09:56.977Z,2.28
2023-05-12T11:12:27.258Z,2.10
2023-05-12T11:14:53.921Z,2.00
2023-05-12T11:17:20.598Z,1.90
2023-05-12T11:19:49.640Z,2.15
2023-05-12T11:22:21.694Z,1.88
2023-05-12T11:24:53.342Z,1.90
2023-05-12T11:27:23.126Z,2.00
2023-05-12T11:30:01.832Z,1.92
2023-05-12T11:32:29.510Z,2.00
2023-05-12T11:34:56.397Z,1.60
2023-05-12T11:37:23.339Z,1.80
2023-05-12T11:39:50.045Z,1.67
2023-05-12T11:42:19.671Z,1.90
2023-05-12T11:44:48.657Z,1.88
2023-05-12T11:47:16.180Z,1.60
2023-05-12T11:49:51.372Z,1.50
2023-05-12T11:52:23.443Z,1.85
2023-05-12T11:54:57.348Z,1.50
2023-05-12T11:57:29.032Z,1.40
2023-05-12T12:00:00.299Z,1.48
2023-05-12T12:02:27.943Z,1.20
2023-05-12T12:04:54.566Z,1.30
2023-05-12T12:07:37.229Z,1.40
2023-05-12T12:10:19.159Z,1.40
2023-05-12T12:12:48.542Z,1.40
2023-05-12T12:15:21.451Z,1.70
2023-05-12T12:17:48.079Z,1.30
2023-05-12T12:20:14.683Z,1.50
2023-05-12T12:22:41.266Z,1.40
2023-05-12T12:25:08.224Z,1.60
2023-05-12T12:27:40.161Z,1.30
2023-05-12T12:30:07.233Z,1.42
2023-05-12T12:32:33.848Z,1.45
2023-05-12T12:35:02.956Z,1.60
2023-05-12T12:37:29.477Z,1.33
2023-05-12T12:39:56.052Z,1.52
2023-05-12T12:42:22.564Z,1.40
2023-05-12T12:44:50.285Z,1.40
2023-05-12T12:47:17.973Z,1.40
2023-05-12T12:49:45.039Z,1.40
2023-05-12T12:52:11.574Z,1.58
2023-05-12T12:54:38.013Z,1.33
2023-05-12T12:57:04.770Z,1.60
2023-05-12T12:59:33.963Z,1.50
2023-05-12T13:02:01.392Z,1.60
2023-05-12T13:04:28.020Z,1.50
2023-05-12T13:06:54.514Z,1.77
2023-05-12T13:09:20.950Z,1.75
2023-05-12T13:11:48.097Z,1.73
2023-05-12T13:14:14.817Z,1.23
2023-05-12T13:16:41.763Z,1.30
2023-05-12T13:19:08.349Z,1.40
2023-05-12T13:21:35.071Z,1.40
2023-05-12T13:24:03.704Z,1.50
2023-05-12T13:26:30.146Z,1.60
2023-05-12T13:28:56.555Z,1.60
2023-05-12T13:31:23.286Z,1.40
2023-05-12T13:33:49.899Z,1.38
2023-05-12T13:36:16.449Z,1.52
2023-05-12T13:38:42.957Z,1.55
2023-05-12T13:41:09.595Z,1.75
2023-05-12T13:43:36.045Z,1.60
2023-05-12T13:46:02.635Z,1.42
2023-05-12T13:48:29.211Z,1.50
2023-05-12T13:50:55.767Z,1.50
2023-05-12T13:53:22.316Z,1.60
2023-05-12T13:55:48.739Z,1.70
2023-05-12T13:58:15.266Z,1.80
2023-05-12T14:00:43.824Z,1.90
2023-05-12T14:03:15.770Z,1.73
2023-05-12T14:05:42.275Z,1.67
2023-05-12T14:08:09.009Z,1.60
2023-05-12T14:10:35.543Z,1.70
2023-05-12T14:13:02.022Z,1.70
2023-05-12T14:15:47.212Z,1.95
2023-05-12T14:18:15.949Z,1.83
2023-05-12T14:20:42.509Z,1.75
2023-05-12T14:23:09.034Z,2.10
2023-05-12T14:25:36.632Z,2.00
2023-05-12T14:28:03.653Z,2.25
2023-05-12T14:30:30.398Z,2.15
2023-05-12T14:32:57.266Z,1.90
2023-05-12T14:35:27.563Z,2.00
2023-05-12T14:37:55.071Z,2.50
2023-05-12T14:40:21.489Z,1.98
2023-05-12T14:42:48.048Z,2.15
2023-05-12T14:45:14.765Z,2.10
2023-05-12T14:47:41.619Z,2.20
2023-05-12T14:50:08.567Z,2.47
2023-05-12T14:52:38.364Z,1.90
2023-05-12T14:55:11.788Z,1.85
2023-05-12T14:57:41.349Z,1.70
2023-05-12T15:00:10.868Z,1.92
2023-05-12T15:02:37.771Z,2.38
2023-05-12T15:05:08.163Z,1.85
2023-05-12T15:07:34.954Z,1.73
2023-05-12T15:10:01.624Z,1.92
2023-05-12T15:12:28.265Z,2.05
2023-05-12T15:14:56.387Z,2.10
2023-05-12T15:19:49.683Z,3.13
2023-05-12T15:22:16.145Z,1.95
2023-05-12T15:24:43.087Z,2.10
2023-05-12T15:27:09.664Z,2.10
2023-05-12T15:29:40.693Z,1.83
2023-05-12T15:32:07.767Z,2.10
2023-05-12T15:34:37.426Z,2.03
2023-05-12T15:37:04.046Z,2.05
2023-05-12T15:39:30.480Z,1.80
2023-05-12T15:41:56.963Z,2.38
2023-05-12T15:44:23.498Z,2.70
2023-05-12T15:46:50.218Z,2.03
2023-05-12T15:49:16.819Z,1.85
2023-05-12T15:51:43.257Z,1.77
2023-05-12T15:54:09.884Z,1.88
2023-05-12T15:56:37.296Z,1.95
2023-05-12T15:59:05.210Z,1.95
2023-05-12T16:01:32.500Z,1.92
2023-05-12T16:03:59.653Z,2.05
2023-05-12T16:06:26.354Z,1.92
2023-05-12T16:08:53.338Z,1.90
2023-05-12T16:11:22.545Z,2.00
2023-05-12T16:13:51.602Z,2.03
2023-05-12T16:16:18.196Z,2.05
2023-05-12T16:18:44.769Z,1.80
2023-05-12T16:21:12.676Z,1.80
2023-05-12T16:23:39.344Z,2.05
2023-05-12T16:26:05.997Z,1.95
2023-05-12T16:28:34.486Z,1.80
2023-05-12T16:31:01.943Z,1.63
2023-05-12T16:33:28.420Z,1.98
2023-05-12T16:35:54.844Z,1.63
2023-05-12T16:38:21.327Z,2.15
2023-05-12T16:40:48.029Z,2.17
2023-05-12T16:43:14.460Z,2.13
2023-05-12T16:45:40.945Z,1.80
2023-05-12T16:48:07.355Z,2.15
2023-05-12T16:50:33.792Z,2.20
2023-05-12T16:53:00.612Z,2.08
2023-05-12T16:55:27.140Z,1.98
2023-05-12T16:57:53.561Z,2.03
2023-05-12T17:00:20.168Z,2.40
2023-05-12T17:02:46.805Z,2.35
2023-05-12T17:05:13.267Z,2.08
2023-05-12T17:07:39.781Z,1.85
2023-05-12T17:10:06.695Z,1.60
2023-05-12T17:12:36.927Z,1.77
2023-05-12T17:15:08.175Z,1.83
2023-05-12T17:17:48.790Z,1.70
2023-05-12T17:20:15.246Z,1.60
2023-05-12T17:22:44.437Z,1.70
2023-05-12T17:25:10.906Z,2.17
2023-05-12T17:27:37.295Z,1.52
2023-05-12T17:30:04.513Z,1.85
2023-05-12T17:32:31.561Z,1.80
2023-05-12T17:34:58.035Z,1.58
2023-05-12T17:37:24.724Z,1.80
2023-05-12T17:39:51.805Z,1.45
2023-05-12T17:42:18.546Z,1.60
2023-05-12T17:44:45.280Z,1.60
2023-05-12T17:47:14.582Z,1.42
2023-05-12T17:49:41.636Z,1.55
2023-05-12T17:52:08.425Z,1.50
2023-05-12T17:54:34.989Z,1.60
2023-05-12T17:57:02.027Z,1.60
2023-05-12T17:59:28.595Z,1.70
2023-05-12T18:01:55.081Z,1.80
2023-05-12T18:04:22.987Z,2.08
2023-05-12T18:06:50.306Z,2.17
2023-05-12T18:09:17.751Z,3.20
2023-05-12T18:11:47.541Z,2.10
2023-05-12T18:14:13.991Z,2.42
2023-05-12T18:16:40.658Z,2.50
2023-05-12T18:19:07.390Z,2.13
2023-05-12T18:21:33.945Z,2.10
2023-05-12T18:24:00.882Z,4.32
2023-05-12T18:26:28.000Z,3.65
2023-05-12T18:28:54.755Z,3.00
2023-05-12T18:31:21.273Z,2.75
2023-05-12T18:33:49.565Z,4.03
2023-05-12T18:36:16.540Z,3.17
2023-05-12T18:38:43.515Z,3.92
2023-05-12T18:41:10.947Z,5.57
2023-05-12T18:43:37.858Z,5.38
2023-05-12T18:46:04.644Z,3.72
2023-05-12T18:48:31.261Z,6.63
2023-05-12T18:50:57.939Z,2.78
2023-05-12T18:53:24.778Z,3.00
2023-05-12T18:55:51.586Z,2.20
2023-05-12T18:58:18.037Z,2.25
2023-05-12T19:00:45.034Z,3.97
2023-05-12T19:03:11.645Z,2.28
2023-05-12T19:05:42.061Z,2.60
2023-05-12T19:08:08.528Z,2.08
2023-05-12T19:10:36.633Z,2.10
2023-05-12T19:13:04.647Z,2.00
2023-05-12T19:15:31.098Z,2.13
2023-05-12T19:17:57.558Z,2.63
2023-05-12T19:20:24.464Z,2.10
2023-05-12T19:22:51.052Z,2.10
2023-05-12T19:25:17.841Z,2.00
2023-05-12T19:27:45.831Z,1.95
2023-05-12T19:30:13.956Z,2.05
2023-05-12T19:32:42.392Z,1.70
2023-05-12T19:35:12.451Z,1.60
2023-05-12T19:37:39.024Z,1.65
2023-05-12T19:40:06.311Z,2.17
2023-05-12T19:42:32.775Z,1.75
2023-05-12T19:45:00.521Z,1.73
2023-05-12T19:47:27.055Z,1.80
2023-05-12T19:49:53.953Z,1.58
2023-05-12T19:52:21.420Z,1.70
2023-05-12T19:54:47.865Z,1.75
2023-05-12T19:57:14.246Z,2.05
2023-05-12T19:59:40.645Z,1.90
2023-05-12T20:02:11.047Z,1.63
2023-05-12T20:04:37.548Z,1.73
2023-05-12T20:07:04.125Z,1.75
2023-05-12T20:09:30.700Z,1.65
2023-05-12T20:11:57.144Z,2.10
2023-05-12T20:14:23.570Z,1.98
2023-05-12T20:16:51.066Z,1.83
2023-05-12T20:19:18.062Z,1.50
2023-05-12T20:21:44.464Z,1.48
2023-05-12T20:24:10.901Z,1.48
2023-05-12T20:26:37.789Z,1.23
2023-05-12T20:29:04.333Z,1.30
2023-05-12T20:31:31.115Z,1.30
2023-05-12T20:33:57.808Z,1.40
2023-05-12T20:36:24.214Z,1.17
2023-05-12T20:38:50.616Z,1.13
2023-05-12T20:41:17.039Z,1.45
2023-05-12T20:43:45.776Z,1.17
2023-05-12T20:46:12.537Z,1.13
2023-05-12T20:48:39.484Z,1.20
2023-05-12T20:51:12.684Z,1.20
2023-05-12T20:53:39.260Z,1.15
2023-05-12T20:56:08.358Z,1.20
2023-05-12T20:58:35.106Z,1.35
2023-05-12T21:01:01.871Z,1.48
2023-05-12T21:03:28.362Z,2.65
2023-05-12T21:05:54.817Z,2.42
2023-05-12T21:08:21.253Z,1.67
2023-05-12T21:10:48.556Z,1.60
2023-05-12T21:13:15.298Z,1.50
2023-05-12T21:15:41.879Z,1.58
2023-05-12T21:18:09.005Z,1.35
2023-05-12T21:20:35.712Z,1.38
2023-05-12T21:23:02.410Z,1.38
2023-05-12T21:25:28.937Z,1.40
2023-05-12T21:27:55.461Z,1.48
2023-05-12T21:30:22.041Z,1.30
2023-05-12T21:32:48.688Z,1.40
2023-05-12T21:35:15.181Z,1.70
2023-05-12T21:37:41.645Z,1.42
2023-05-12T21:40:08.764Z,1.42
2023-05-12T21:42:35.413Z,1.48
2023-05-12T21:45:02.012Z,1.50
2023-05-12T21:47:28.453Z,1.42
2023-05-12T21:49:55.482Z,1.30
2023-05-12T21:52:22.637Z,1.58
2023-05-12T21:54:49.258Z,1.67
2023-05-12T21:57:15.748Z,1.40
2023-05-12T21:59:42.184Z,1.38
2023-05-12T22:02:08.722Z,1.98
2023-05-12T22:04:35.184Z,1.45
2023-05-12T22:07:01.849Z,1.35
2023-05-12T22:09:30.384Z,1.60
2023-05-12T22:11:57.878Z,1.75
2023-05-12T22:14:24.492Z,1.58
2023-05-12T22:16:51.023Z,1.40
2023-05-12T22:19:17.578Z,1.90
2023-05-12T22:21:55.795Z,1.50
2023-05-12T22:24:25.122Z,1.45
2023-05-12T22:26:51.898Z,1.50
2023-05-12T22:29:21.930Z,1.52
2023-05-12T22:31:48.779Z,1.90
2023-05-12T22:34:15.770Z,1.73
2023-05-12T22:36:42.432Z,1.60
2023-05-12T22:39:09.320Z,1.55
2023-05-12T22:41:36.567Z,1.85
2023-05-12T22:44:16.866Z,1.60
2023-05-12T22:46:43.608Z,1.50
2023-05-12T23:06:15.313Z,1.70
2023-05-12T23:08:51.841Z,2.00
2023-05-12T23:11:53.906Z,1.58
2023-05-12T23:14:33.333Z,1.73
2023-05-12T23:17:10.686Z,1.80
2023-05-12T23:19:41.094Z,1.52
2023-05-12T23:22:19.347Z,1.50
2023-05-12T23:28:05.679Z,2.65
2023-05-12T23:31:03.594Z,1.70
2023-05-12T23:33:46.783Z,1.75
2023-05-12T23:36:59.033Z,1.88
2023-05-12T23:39:25.733Z,1.80
2023-05-12T23:41:52.188Z,1.80
2023-05-12T23:44:18.783Z,1.95
2023-05-12T23:46:48.408Z,1.75
2023-05-12T23:49:20.145Z,2.05
2023-05-12T23:51:46.706Z,1.95
2023-05-12T23:54:23.918Z,1.90
2023-05-12T23:59:52.868Z,1.95
